createdAt,value
2019-02-26T00:00:54.030Z,101995.78
2019-02-26T00:05:59.450Z,101995.78
2019-02-26T00:11:06.100Z,102006.52
2019-02-26T00:16:12.884Z,102007.42
2019-02-26T00:21:16.525Z,101988.61
2019-02-26T00:26:22.327Z,101979.08
2019-02-26T00:31:28.154Z,101984.21
2019-02-26T00:36:33.639Z,101987.52
2019-02-26T00:41:40.158Z,101997.53
2019-02-26T00:46:43.899Z,101985.52
2019-02-26T00:51:49.065Z,102002.22
2019-02-26T00:56:57.012Z,102018.95
2019-02-26T01:01:59.459Z,102013.30
2019-02-26T01:07:05.316Z,101998.53
2019-02-26T01:12:11.343Z,101993.36
2019-02-26T01:17:16.978Z,101993.36
2019-02-26T01:22:21.054Z,101981.83
2019-02-26T01:27:25.117Z,101981.83
2019-02-26T01:32:29.129Z,101966.27
2019-02-26T01:37:36.168Z,101946.22
2019-02-26T01:42:38.968Z,101946.22
2019-02-26T01:47:45.621Z,101927.95
2019-02-26T01:52:50.008Z,101927.95
2019-02-26T01:57:58.460Z,101927.27
2019-02-26T02:03:00.508Z,101925.05
2019-02-26T02:08:04.692Z,101927.80
2019-02-26T02:13:09.252Z,101922.13
2019-02-26T02:18:14.578Z,101922.13
2019-02-26T02:23:19.433Z,101914.20
2019-02-26T02:28:26.171Z,101904.81
2019-02-26T02:33:33.088Z,101904.02
2019-02-26T02:38:37.144Z,101886.02
2019-02-26T02:43:41.330Z,101904.56
2019-02-26T02:48:45.379Z,101901.44
2019-02-26T02:53:51.107Z,101896.67
2019-02-26T02:58:55.189Z,101902.52
2019-02-26T03:04:01.150Z,101899.46
2019-02-26T03:09:14.491Z,101911.60
2019-02-26T03:14:18.735Z,101911.60
2019-02-26T03:19:22.856Z,101909.48
2019-02-26T03:24:28.890Z,101907.34
2019-02-26T03:29:32.800Z,101913.30
2019-02-26T03:34:36.926Z,101912.89
2019-02-26T03:39:40.971Z,101917.80
2019-02-26T03:44:46.936Z,101923.31
2019-02-26T03:49:50.826Z,101917.06
2019-02-26T03:54:54.967Z,101908.63
2019-02-26T03:59:59.586Z,101914.87
2019-02-26T04:05:06.869Z,101917.23
2019-02-26T04:10:10.117Z,101924.02
2019-02-26T04:15:14.960Z,101924.02
2019-02-26T04:20:19.054Z,101929.91
2019-02-26T04:25:32.725Z,101920.97
2019-02-26T04:30:57.868Z,101919.69
2019-02-26T04:36:20.331Z,101916.94
2019-02-26T04:41:34.062Z,101905.77
2019-02-26T04:46:48.648Z,101887.53
2019-02-26T04:51:52.788Z,101895.96
2019-02-26T04:56:56.905Z,101892.91
2019-02-26T05:02:00.938Z,101892.91
2019-02-26T05:07:08.043Z,101898.89
2019-02-26T05:12:11.249Z,101888.64
2019-02-26T05:17:15.354Z,101887.77
2019-02-26T05:22:22.110Z,101886.89
2019-02-26T05:27:25.204Z,101900.87
2019-02-26T05:32:30.926Z,101906.28
2019-02-26T05:37:37.557Z,101901.84
2019-02-26T05:42:40.877Z,101905.54
2019-02-26T05:47:46.037Z,101905.14
2019-02-26T05:52:57.621Z,101898.89
2019-02-26T05:57:56.561Z,101898.89
2019-02-26T06:03:00.638Z,101894.48
2019-02-26T06:08:04.687Z,101897.71
2019-02-26T06:13:10.689Z,101895.05
2019-02-26T06:18:14.525Z,101895.99
2019-02-26T06:23:18.547Z,101900.02
2019-02-26T06:28:22.586Z,101900.02
2019-02-26T06:33:31.696Z,101902.31
2019-02-26T06:38:33.283Z,101907.81
2019-02-26T06:43:39.919Z,101897.94
2019-02-26T06:48:43.960Z,101896.23
2019-02-26T06:53:49.799Z,101896.62
2019-02-26T06:58:53.747Z,101900.26
2019-02-26T07:03:57.782Z,101886.42
2019-02-26T07:09:01.812Z,101885.48
2019-02-26T07:14:07.993Z,101898.98
2019-02-26T07:19:14.006Z,101894.08
2019-02-26T07:24:18.104Z,101894.08
2019-02-26T07:29:23.284Z,101901.66
2019-02-26T07:34:27.501Z,101908.39
2019-02-26T07:39:31.647Z,101910.13
2019-02-26T07:44:35.681Z,101915.68
2019-02-26T07:49:39.975Z,101915.92
2019-02-26T07:54:44.813Z,101906.94
2019-02-26T07:59:50.261Z,101911.32
2019-02-26T08:04:54.414Z,101911.32
2019-02-26T08:09:58.444Z,101914.63
2019-02-26T08:15:04.969Z,101914.63
2019-02-26T08:20:10.538Z,101900.53
2019-02-26T08:25:15.774Z,101900.53
2019-02-26T08:30:22.925Z,101889.96
2019-02-26T08:35:25.766Z,101882.68
2019-02-26T08:40:29.869Z,101888.59
2019-02-26T08:45:33.979Z,101866.59
2019-02-26T08:50:39.090Z,101867.85
2019-02-26T08:55:43.860Z,101867.85
2019-02-26T09:00:47.996Z,101890.31
2019-02-26T09:05:53.845Z,101890.31
2019-02-26T09:10:57.843Z,101912.17
2019-02-26T09:16:03.036Z,101916.69
2019-02-26T09:21:09.975Z,101916.69
2019-02-26T09:26:13.489Z,101919.55
2019-02-26T09:31:17.524Z,101925.63
2019-02-26T09:36:26.238Z,101927.05
2019-02-26T09:41:30.772Z,101925.16
2019-02-26T09:46:36.331Z,101925.16
2019-02-26T09:51:40.805Z,101933.62
2019-02-26T09:56:44.899Z,101933.62
2019-02-26T10:01:48.941Z,101933.78
2019-02-26T10:06:53.005Z,101929.08
2019-02-26T10:11:57.058Z,101930.42
2019-02-26T10:17:01.163Z,101932.34
2019-02-26T10:22:07.136Z,101938.16
2019-02-26T10:27:12.148Z,101927.42
2019-02-26T10:32:16.880Z,101935.16
2019-02-26T10:37:20.919Z,101937.09
2019-02-26T10:42:24.978Z,101937.09
2019-02-26T10:47:29.889Z,101928.52
2019-02-26T10:52:34.916Z,101924.66
2019-02-26T10:57:39.088Z,101919.46
2019-02-26T11:02:46.007Z,101918.66
2019-02-26T11:07:49.262Z,101919.16
2019-02-26T11:12:54.442Z,101922.45
2019-02-26T11:17:59.198Z,101919.02
2019-02-26T11:23:05.603Z,101916.58
2019-02-26T11:28:10.645Z,101914.91
2019-02-26T11:33:16.253Z,101914.91
2019-02-26T11:38:22.147Z,101901.16
2019-02-26T11:43:28.966Z,101905.05
2019-02-26T11:48:33.214Z,101892.65
2019-02-26T11:53:37.599Z,101872.47
2019-02-26T11:58:41.704Z,101873.05
2019-02-26T12:03:45.982Z,101880.25
2019-02-26T12:08:50.147Z,101876.28
2019-02-26T12:13:54.291Z,101865.23
2019-02-26T12:18:59.313Z,101849.22
2019-02-26T12:24:06.566Z,101849.22
2019-02-26T12:29:10.172Z,101838.59
2019-02-26T12:34:15.707Z,101846.92
2019-02-26T12:39:22.234Z,101845.53
2019-02-26T12:44:28.819Z,101841.92
2019-02-26T12:49:33.303Z,101847.58
2019-02-26T12:54:39.955Z,101847.58
2019-02-26T12:59:43.535Z,101840.10
2019-02-26T13:04:50.610Z,101827.00
2019-02-26T13:09:56.100Z,101824.41
2019-02-26T13:15:03.124Z,101820.37
2019-02-26T13:20:11.085Z,101817.74
2019-02-26T13:25:17.022Z,101817.74
2019-02-26T13:30:21.220Z,101817.08
2019-02-26T13:35:25.427Z,101808.72
2019-02-26T13:40:29.619Z,101808.72
2019-02-26T13:45:33.722Z,101804.00
2019-02-26T13:50:39.084Z,101786.92
2019-02-26T13:55:43.405Z,101774.53
2019-02-26T14:00:48.060Z,101769.81
2019-02-26T14:05:52.395Z,101745.74
2019-02-26T14:10:56.568Z,101745.74
2019-02-26T14:16:00.639Z,101730.59
2019-02-26T14:21:04.960Z,101733.08
2019-02-26T14:26:09.101Z,101726.83
2019-02-26T14:31:13.241Z,101723.66
2019-02-26T14:36:17.343Z,101723.66
2019-02-26T14:42:00.471Z,101697.77
2019-02-26T14:47:04.606Z,101697.77
2019-02-26T14:52:08.639Z,101702.55
2019-02-26T14:57:12.656Z,101696.03
2019-02-26T15:02:17.692Z,101691.83
2019-02-26T15:07:21.931Z,101701.80
2019-02-26T15:12:25.951Z,101701.80
2019-02-26T15:17:30.014Z,101719.30
2019-02-26T15:22:34.214Z,101709.80
2019-02-26T15:27:38.937Z,101709.80
2019-02-26T15:32:43.778Z,101712.38
2019-02-26T15:37:48.163Z,101706.92
2019-02-26T15:42:54.401Z,101706.92
2019-02-26T15:47:58.168Z,101717.02
2019-02-26T15:53:02.381Z,101725.41
2019-02-26T15:58:07.043Z,101717.73
2019-02-26T16:03:11.144Z,101721.72
2019-02-26T16:08:15.195Z,101721.97
2019-02-26T16:13:19.550Z,101721.97
2019-02-26T16:18:23.583Z,101731.19
2019-02-26T16:23:27.675Z,101731.47
2019-02-26T16:28:31.777Z,101718.20
2019-02-26T16:33:35.924Z,101725.13
2019-02-26T16:38:40.024Z,101725.13
2019-02-26T16:43:44.176Z,101743.62
2019-02-26T16:48:48.457Z,101752.64
2019-02-26T16:53:52.625Z,101755.89
2019-02-26T16:58:56.828Z,101751.70
2019-02-26T17:04:00.895Z,101751.38
2019-02-26T17:09:07.543Z,101744.47
2019-02-26T17:14:12.220Z,101744.02
2019-02-26T17:19:17.133Z,101739.44
2019-02-26T17:24:21.510Z,101739.44
2019-02-26T17:29:25.797Z,101732.33
2019-02-26T17:34:29.922Z,101724.23
2019-02-26T17:39:34.287Z,101724.23
2019-02-26T17:44:38.444Z,101740.28
2019-02-26T17:49:42.669Z,101740.28
2019-02-26T17:54:46.920Z,101744.09
2019-02-26T17:59:52.755Z,101727.41
2019-02-26T18:04:58.499Z,101717.27
2019-02-26T18:10:03.647Z,101728.69
2019-02-26T18:15:08.914Z,101728.69
2019-02-26T18:20:15.427Z,101744.58
2019-02-26T18:25:19.721Z,101742.51
2019-02-26T18:30:23.949Z,101742.51
2019-02-26T18:35:28.087Z,101733.61
2019-02-26T18:40:32.161Z,101733.61
2019-02-26T18:45:36.318Z,101729.42
2019-02-26T18:50:40.517Z,101732.81
2019-02-26T18:55:44.685Z,101737.03
2019-02-26T19:00:48.818Z,101738.07
2019-02-26T19:05:54.687Z,101736.32
2019-02-26T19:10:58.718Z,101737.03
2019-02-26T19:16:02.976Z,101738.93
2019-02-26T19:21:07.178Z,101738.93
2019-02-26T19:26:13.676Z,101736.31
2019-02-26T19:31:17.267Z,101737.34
2019-02-26T19:36:21.590Z,101729.95
2019-02-26T19:41:25.821Z,101748.20
2019-02-26T19:46:30.137Z,101743.55
2019-02-26T19:51:34.818Z,101750.69
2019-02-26T19:56:39.235Z,101750.69
2019-02-26T20:01:43.395Z,101756.08
2019-02-26T20:06:47.559Z,101759.09
2019-02-26T20:11:53.557Z,101760.14
2019-02-26T20:16:57.804Z,101758.68
2019-02-26T20:22:01.995Z,101756.84
2019-02-26T20:27:06.407Z,101746.35
2019-02-26T20:32:10.547Z,101746.35
2019-02-26T20:37:14.704Z,101747.19
2019-02-26T20:42:18.938Z,101748.94
2019-02-26T20:47:23.167Z,101750.92
2019-02-26T20:52:27.352Z,101747.77
2019-02-26T20:57:31.565Z,101743.46
2019-02-26T21:02:35.895Z,101743.46
2019-02-26T21:07:40.115Z,101733.32
2019-02-26T21:12:44.447Z,101737.32
2019-02-26T21:17:48.739Z,101738.53
2019-02-26T21:22:54.935Z,101739.06
2019-02-26T21:28:01.470Z,101733.45
2019-02-26T21:33:05.126Z,101737.31
2019-02-26T21:38:09.430Z,101727.31
2019-02-26T21:43:13.597Z,101726.31
2019-02-26T21:48:17.796Z,101714.70
2019-02-26T21:53:21.915Z,101708.96
2019-02-26T21:58:26.803Z,101714.13
2019-02-26T22:03:31.619Z,101719.42
2019-02-26T22:08:35.809Z,101715.30
2019-02-26T22:13:39.935Z,101707.83
2019-02-26T22:18:44.219Z,101711.77
2019-02-26T22:23:48.528Z,101708.86
2019-02-26T22:28:53.138Z,101712.64
2019-02-26T22:33:57.458Z,101717.77
2019-02-26T22:39:01.674Z,101710.23
2019-02-26T22:44:05.962Z,101714.45
2019-02-26T22:49:10.151Z,101698.14
2019-02-26T22:54:14.441Z,101707.46
2019-02-26T22:59:18.597Z,101700.06
2019-02-26T23:04:22.927Z,101700.06
2019-02-26T23:09:29.618Z,101690.06
2019-02-26T23:14:35.908Z,101681.58
2019-02-26T23:19:40.322Z,101679.45
2019-02-26T23:24:45.197Z,101667.72
2019-02-26T23:29:49.616Z,101674.53
2019-02-26T23:35:05.198Z,101673.84
2019-02-26T23:40:13.094Z,101673.84
2019-02-26T23:45:17.641Z,101677.23
2019-02-26T23:50:21.882Z,101674.88
2019-02-26T23:55:27.616Z,101670.84
